createdAt,value
2023-04-18T00:00:13.034Z,212.14
2023-04-18T00:01:13.088Z,208.09
2023-04-18T00:02:13.168Z,208.31
2023-04-18T00:03:13.277Z,208.32
2023-04-18T00:04:13.991Z,211.27
2023-04-18T00:05:13.233Z,209.53
2023-04-18T00:06:13.158Z,208.95
2023-04-18T00:07:13.169Z,212.83
2023-04-18T00:08:13.353Z,210.78
2023-04-18T00:09:13.277Z,211.50
2023-04-18T00:10:13.299Z,212.46
2023-04-18T00:11:13.316Z,208.91
2023-04-18T00:12:13.374Z,210.87
2023-04-18T00:13:13.324Z,210.41
2023-04-18T00:14:13.440Z,212.88
2023-04-18T00:15:13.391Z,211.33
2023-04-18T00:16:13.405Z,213.16
2023-04-18T00:17:13.506Z,208.75
2023-04-18T00:18:13.392Z,208.64
2023-04-18T00:19:13.460Z,212.71
2023-04-18T00:20:13.543Z,214.00
2023-04-18T00:21:13.498Z,210.59
2023-04-18T00:22:13.552Z,207.69
2023-04-18T00:23:13.592Z,211.70
2023-04-18T00:24:13.803Z,209.09
2023-04-18T00:25:13.567Z,212.07
2023-04-18T00:26:13.560Z,212.42
2023-04-18T00:27:13.569Z,208.28
2023-04-18T00:28:13.578Z,208.93
2023-04-18T00:29:13.621Z,212.71
2023-04-18T00:30:13.707Z,212.50
2023-04-18T00:31:13.682Z,210.42
2023-04-18T00:32:13.676Z,212.54
2023-04-18T00:33:13.728Z,213.33
2023-04-18T00:34:13.938Z,215.26
2023-04-18T00:35:13.858Z,211.93
2023-04-18T00:36:13.786Z,210.00
2023-04-18T00:37:13.857Z,212.11
2023-04-18T00:38:13.860Z,209.45
2023-04-18T00:39:13.861Z,215.72
2023-04-18T00:40:13.866Z,211.56
2023-04-18T00:41:13.947Z,210.96
2023-04-18T00:42:13.992Z,210.89
2023-04-18T00:43:13.998Z,213.15
2023-04-18T00:44:14.180Z,209.13
2023-04-18T00:45:14.079Z,214.27
2023-04-18T00:46:14.056Z,213.40
2023-04-18T00:47:14.071Z,211.83
2023-04-18T00:48:14.052Z,213.68
2023-04-18T00:49:14.102Z,211.47
2023-04-18T00:50:14.137Z,215.33
2023-04-18T00:51:14.161Z,213.62
2023-04-18T00:52:14.126Z,212.41
2023-04-18T00:53:14.126Z,211.33
2023-04-18T00:54:14.388Z,211.54
2023-04-18T00:55:14.176Z,213.52
2023-04-18T00:56:14.198Z,208.99
2023-04-18T00:57:14.234Z,210.53
2023-04-18T00:58:14.234Z,212.75
2023-04-18T00:59:14.308Z,213.00
2023-04-18T01:00:14.325Z,211.61
2023-04-18T01:01:14.364Z,207.66
2023-04-18T01:02:14.377Z,211.00
2023-04-18T01:03:14.552Z,212.33
2023-04-18T01:04:14.980Z,213.63
2023-04-18T01:05:14.566Z,212.28
2023-04-18T01:06:14.471Z,211.69
2023-04-18T01:07:14.465Z,212.98
2023-04-18T01:08:14.464Z,210.00
2023-04-18T01:09:14.582Z,211.48
2023-04-18T01:10:14.563Z,209.34
2023-04-18T01:11:14.567Z,211.00
2023-04-18T01:12:14.645Z,211.16
2023-04-18T01:13:14.640Z,212.77
2023-04-18T01:14:14.960Z,214.07
2023-04-18T01:15:39.283Z,25.00
2023-04-18T01:16:39.172Z,25.00
2023-04-18T01:17:39.221Z,25.00
2023-04-18T01:18:39.167Z,25.00
2023-04-18T01:19:39.122Z,25.00
2023-04-18T01:20:39.129Z,25.98
2023-04-18T01:21:39.098Z,29.04
2023-04-18T01:22:39.119Z,26.33
2023-04-18T01:23:39.163Z,25.01
2023-04-18T01:24:39.092Z,29.25
2023-04-18T01:25:39.094Z,28.12
2023-04-18T01:26:39.095Z,27.81
2023-04-18T01:27:39.077Z,30.41
2023-04-18T01:28:39.082Z,28.68
2023-04-18T01:29:39.130Z,29.44
2023-04-18T01:30:39.104Z,28.50
2023-04-18T01:31:39.221Z,29.74
2023-04-18T01:32:39.141Z,30.68
2023-04-18T01:33:39.080Z,30.40
2023-04-18T01:34:39.032Z,29.09
2023-04-18T01:35:39.041Z,30.54
2023-04-18T01:36:39.919Z,28.07
2023-04-18T01:37:39.051Z,29.37
2023-04-18T01:38:39.023Z,32.44
2023-04-18T01:39:38.989Z,30.69
2023-04-18T01:40:39.029Z,30.89
2023-04-18T01:41:38.977Z,30.43
2023-04-18T01:42:38.975Z,31.62
2023-04-18T01:43:38.996Z,32.92
2023-04-18T01:44:38.956Z,31.94
2023-04-18T01:45:38.954Z,30.22
2023-04-18T01:46:38.985Z,28.76
2023-04-18T01:47:39.010Z,31.48
2023-04-18T01:48:38.988Z,26.51
2023-04-18T01:49:38.927Z,30.88
2023-04-18T01:50:38.944Z,27.62
2023-04-18T01:51:38.976Z,31.54
2023-04-18T01:52:39.008Z,28.56
2023-04-18T01:53:38.890Z,29.78
2023-04-18T01:54:38.876Z,28.90
2023-04-18T01:55:38.931Z,33.62
2023-04-18T01:56:38.872Z,33.74
2023-04-18T01:57:38.883Z,30.65
2023-04-18T01:58:38.845Z,30.93
2023-04-18T01:59:38.851Z,30.85
2023-04-18T02:00:38.904Z,34.05
2023-04-18T02:01:38.846Z,28.83
2023-04-18T02:02:38.996Z,31.12
2023-04-18T02:03:39.133Z,30.56
2023-04-18T02:04:38.818Z,30.25
2023-04-18T02:05:38.843Z,31.99
2023-04-18T02:06:38.790Z,30.38
2023-04-18T02:07:38.844Z,31.15
2023-04-18T02:08:38.799Z,31.17
2023-04-18T02:09:38.815Z,31.00
2023-04-18T02:10:38.810Z,30.62
2023-04-18T02:11:38.846Z,29.58
2023-04-18T02:12:38.768Z,32.35
2023-04-18T02:13:38.792Z,30.81
2023-04-18T02:14:38.801Z,30.71
2023-04-18T02:15:38.789Z,33.78
2023-04-18T02:16:38.870Z,33.83
2023-04-18T02:17:38.796Z,34.32
2023-04-18T02:18:38.757Z,32.19
2023-04-18T02:19:38.721Z,33.65
2023-04-18T02:20:38.724Z,30.82
2023-04-18T02:21:38.733Z,32.46
2023-04-18T02:22:38.699Z,34.61
2023-04-18T02:23:38.697Z,30.95
2023-04-18T02:24:38.698Z,31.30
2023-04-18T02:25:38.712Z,30.35
2023-04-18T02:26:38.757Z,32.77
2023-04-18T02:27:38.671Z,33.19
2023-04-18T02:28:38.745Z,30.81
2023-04-18T02:29:38.727Z,34.21
2023-04-18T02:30:38.752Z,33.10
2023-04-18T02:31:38.836Z,33.11
2023-04-18T02:32:38.862Z,33.42
2023-04-18T02:33:38.822Z,31.98
2023-04-18T02:34:38.865Z,30.51
2023-04-18T02:35:38.870Z,33.67
2023-04-18T02:36:38.942Z,33.11
2023-04-18T02:37:39.017Z,32.59
2023-04-18T02:38:38.990Z,34.50
2023-04-18T02:39:39.006Z,29.28
2023-04-18T02:40:39.005Z,32.44
2023-04-18T02:41:39.011Z,30.04
2023-04-18T02:42:39.124Z,33.24
2023-04-18T02:43:39.086Z,34.22
2023-04-18T02:44:39.065Z,34.78
2023-04-18T02:45:39.146Z,34.66
2023-04-18T02:46:39.159Z,30.96
2023-04-18T02:47:47.373Z,31.69
2023-04-18T02:48:40.155Z,31.85
2023-04-18T02:49:39.178Z,32.23
2023-04-18T02:50:39.136Z,32.99
2023-04-18T02:51:39.128Z,33.91
2023-04-18T02:52:39.159Z,34.56
2023-04-18T02:53:39.123Z,34.15
2023-04-18T02:54:39.106Z,34.74
2023-04-18T02:55:39.117Z,34.72
2023-04-18T02:56:39.081Z,33.31
2023-04-18T02:57:39.095Z,32.12
2023-04-18T02:58:39.083Z,33.48
2023-04-18T02:59:39.099Z,34.19
2023-04-18T03:00:39.126Z,35.54
2023-04-18T03:01:39.096Z,36.83
2023-04-18T03:02:39.078Z,34.80
2023-04-18T03:03:39.036Z,33.73
2023-04-18T03:04:39.057Z,33.85
2023-04-18T03:05:39.076Z,31.90
2023-04-18T03:06:39.004Z,33.78
2023-04-18T03:07:39.086Z,33.16
2023-04-18T03:08:39.082Z,34.93
2023-04-18T03:09:39.172Z,33.58
2023-04-18T03:10:39.180Z,33.62
2023-04-18T03:11:39.205Z,34.26
2023-04-18T03:12:39.246Z,31.84
2023-04-18T03:13:39.308Z,35.03
2023-04-18T03:14:39.274Z,34.52
2023-04-18T03:15:39.320Z,33.91
2023-04-18T03:16:39.383Z,34.19
2023-04-18T03:17:39.445Z,34.85
2023-04-18T03:18:39.392Z,34.43
2023-04-18T03:19:39.451Z,36.16
2023-04-18T03:20:39.502Z,34.74
2023-04-18T03:21:39.571Z,37.02
2023-04-18T03:22:39.603Z,36.27
2023-04-18T03:23:39.623Z,36.21
2023-04-18T03:24:39.677Z,35.35
2023-04-18T03:25:39.718Z,37.44
2023-04-18T03:26:39.702Z,34.71
2023-04-18T03:27:39.804Z,32.95
2023-04-18T03:28:39.811Z,33.92
2023-04-18T03:29:39.779Z,37.02
2023-04-18T03:30:39.873Z,35.81
2023-04-18T03:31:39.997Z,35.17
2023-04-18T03:32:39.974Z,34.99
2023-04-18T03:33:39.981Z,34.35
2023-04-18T03:34:39.978Z,35.67
2023-04-18T03:35:40.020Z,35.13
2023-04-18T03:36:40.103Z,37.28
2023-04-18T03:37:40.111Z,36.74
2023-04-18T03:38:40.110Z,35.15
2023-04-18T03:39:40.110Z,35.52
2023-04-18T03:40:40.155Z,35.89
2023-04-18T03:41:40.203Z,36.98
2023-04-18T03:42:40.216Z,36.78
2023-04-18T03:43:40.261Z,36.36
2023-04-18T03:44:40.295Z,35.05
2023-04-18T03:45:40.345Z,34.94
2023-04-18T03:46:40.468Z,32.00
2023-04-18T03:47:40.526Z,36.78
2023-04-18T03:48:40.475Z,38.17
2023-04-18T03:49:40.525Z,37.62
2023-04-18T03:50:40.510Z,36.77
2023-04-18T03:51:40.559Z,35.71
2023-04-18T03:52:40.588Z,37.97
2023-04-18T03:53:40.587Z,34.06
2023-04-18T03:54:40.653Z,37.20
2023-04-18T03:55:40.673Z,36.65
2023-04-18T03:56:40.693Z,36.50
2023-04-18T03:57:41.433Z,33.49
2023-04-18T03:58:40.783Z,35.53
2023-04-18T03:59:40.804Z,37.26
2023-04-18T04:00:40.820Z,37.90
2023-04-18T04:01:40.913Z,35.92
2023-04-18T04:02:41.054Z,37.01
2023-04-18T04:03:41.182Z,36.28
2023-04-18T04:04:41.140Z,39.15
2023-04-18T04:05:41.008Z,36.10
2023-04-18T04:06:41.025Z,36.57
2023-04-18T04:07:41.048Z,35.57
2023-04-18T04:08:41.080Z,35.17
2023-04-18T04:09:41.142Z,33.82
2023-04-18T04:10:41.196Z,28.59
2023-04-18T04:11:41.200Z,28.03
2023-04-18T04:12:41.242Z,27.07
2023-04-18T04:13:41.253Z,27.41
2023-04-18T04:14:41.318Z,28.57
2023-04-18T04:15:41.327Z,25.52
2023-04-18T04:16:41.462Z,25.00
2023-04-18T04:17:41.386Z,25.51
2023-04-18T04:18:41.404Z,25.00
2023-04-18T04:19:41.429Z,25.99
2023-04-18T04:20:41.518Z,27.34
2023-04-18T04:21:41.528Z,24.96
2023-04-18T04:22:41.545Z,25.00
2023-04-18T04:23:41.548Z,25.00
2023-04-18T04:24:41.593Z,24.80
2023-04-18T04:25:41.667Z,26.20
2023-04-18T04:26:41.682Z,25.76
2023-04-18T04:27:41.672Z,25.34
2023-04-18T04:28:41.713Z,27.04
2023-04-18T04:29:41.791Z,25.47
2023-04-18T04:30:41.841Z,25.32
2023-04-18T04:31:41.883Z,25.99
2023-04-18T04:32:41.904Z,25.04
2023-04-18T04:33:41.914Z,27.51
2023-04-18T04:34:41.926Z,25.39
2023-04-18T04:35:41.932Z,25.00
2023-04-18T04:36:41.974Z,26.18
2023-04-18T04:37:41.970Z,25.44
2023-04-18T04:38:42.052Z,28.36
2023-04-18T04:39:42.053Z,28.83
2023-04-18T04:40:42.061Z,29.95
2023-04-18T04:41:42.093Z,28.81
2023-04-18T04:42:42.193Z,30.58
2023-04-18T04:43:42.221Z,28.00
2023-04-18T04:44:42.273Z,29.30
2023-04-18T04:45:42.283Z,28.94
2023-04-18T04:46:42.306Z,31.95
2023-04-18T04:47:42.334Z,31.14
2023-04-18T04:48:42.343Z,30.48
2023-04-18T04:49:42.319Z,31.54
2023-04-18T04:50:42.375Z,30.41
2023-04-18T04:51:42.396Z,31.25
2023-04-18T04:52:42.454Z,31.81
2023-04-18T04:53:42.460Z,31.37
2023-04-18T04:54:42.415Z,32.14
2023-04-18T04:55:42.492Z,36.03
2023-04-18T04:56:42.515Z,36.41
2023-04-18T04:57:42.512Z,32.79
2023-04-18T04:58:42.521Z,33.53
2023-04-18T04:59:42.553Z,35.25
2023-04-18T05:00:42.607Z,35.35
2023-04-18T05:01:42.703Z,29.34
2023-04-18T05:02:42.839Z,28.96
2023-04-18T05:03:42.942Z,26.20
2023-04-18T05:04:42.732Z,27.07
2023-04-18T05:05:42.761Z,27.07
2023-04-18T05:06:42.748Z,27.44
2023-04-18T05:07:42.758Z,29.82
2023-04-18T05:08:42.815Z,31.80
2023-04-18T05:09:42.797Z,32.40
2023-04-18T05:10:42.838Z,32.14
2023-04-18T05:11:42.909Z,29.51
2023-04-18T05:12:42.902Z,29.89
2023-04-18T05:13:42.948Z,29.99
2023-04-18T05:14:42.946Z,34.99
2023-04-18T05:15:42.952Z,33.09
2023-04-18T05:16:43.090Z,35.32
2023-04-18T05:17:43.061Z,36.55
2023-04-18T05:18:43.033Z,36.32
2023-04-18T05:19:43.098Z,42.59
2023-04-18T05:20:43.096Z,42.71
2023-04-18T05:21:43.113Z,42.28
2023-04-18T05:22:43.182Z,45.02
2023-04-18T05:23:43.167Z,47.68
2023-04-18T05:24:43.229Z,47.86
2023-04-18T05:25:43.237Z,47.95
2023-04-18T05:26:43.259Z,50.64
2023-04-18T05:27:43.303Z,56.81
2023-04-18T05:28:43.359Z,54.99
2023-04-18T05:29:43.350Z,50.74
2023-04-18T05:30:43.433Z,54.87
2023-04-18T05:31:43.442Z,57.04
2023-04-18T05:32:43.497Z,56.95
2023-04-18T05:33:43.454Z,59.03
2023-04-18T05:34:43.461Z,61.18
2023-04-18T05:35:43.504Z,62.80
2023-04-18T05:36:43.528Z,61.38
2023-04-18T05:37:43.603Z,64.84
2023-04-18T05:38:43.580Z,68.25
2023-04-18T05:39:43.997Z,69.36
2023-04-18T05:40:43.698Z,68.50
2023-04-18T05:41:43.716Z,69.92
2023-04-18T05:42:43.687Z,69.21
2023-04-18T05:43:48.409Z,68.79
2023-04-18T05:44:44.720Z,68.90
2023-04-18T05:45:43.699Z,69.48
2023-04-18T05:46:43.750Z,71.00
2023-04-18T05:47:43.693Z,72.62
2023-04-18T05:48:43.764Z,76.35
2023-04-18T05:49:43.700Z,72.42
2023-04-18T05:50:43.695Z,76.14
2023-04-18T05:51:43.667Z,76.17
2023-04-18T05:52:43.679Z,72.86
2023-04-18T05:53:43.616Z,72.45
2023-04-18T05:54:43.807Z,73.75
2023-04-18T05:55:43.595Z,72.34
2023-04-18T05:56:43.577Z,68.81
2023-04-18T05:57:43.985Z,68.05
2023-04-18T05:58:43.578Z,66.43
2023-04-18T05:59:44.008Z,65.17
2023-04-18T06:00:43.592Z,64.95
2023-04-18T06:01:44.008Z,63.72
2023-04-18T06:02:43.692Z,63.82
2023-04-18T06:03:43.955Z,65.26
2023-04-18T06:04:43.813Z,66.81
2023-04-18T06:05:43.789Z,66.01
2023-04-18T06:06:43.670Z,65.35
2023-04-18T06:07:44.003Z,62.80
2023-04-18T06:08:43.758Z,60.09
2023-04-18T06:09:43.818Z,61.44
2023-04-18T06:10:43.805Z,61.85
2023-04-18T06:11:43.824Z,63.84
2023-04-18T06:12:43.872Z,71.36
2023-04-18T06:13:43.887Z,72.47
2023-04-18T06:14:43.944Z,70.64
2023-04-18T06:15:43.965Z,69.77
2023-04-18T06:16:44.129Z,70.15
2023-04-18T06:17:45.012Z,69.74
2023-04-18T06:18:44.011Z,68.33
2023-04-18T06:19:44.073Z,64.78
2023-04-18T06:20:44.086Z,61.52
2023-04-18T06:21:44.105Z,60.34
2023-04-18T06:22:44.162Z,57.30
2023-04-18T06:23:51.068Z,53.31
2023-04-18T06:24:44.156Z,53.59
2023-04-18T06:25:44.178Z,52.03
2023-04-18T06:26:44.179Z,49.17
2023-04-18T06:27:44.973Z,47.07
2023-04-18T06:28:44.190Z,45.05
2023-04-18T06:29:44.146Z,47.25
2023-04-18T06:30:44.239Z,46.44
2023-04-18T06:31:44.570Z,43.67
2023-04-18T06:32:44.189Z,43.59
2023-04-18T06:33:44.900Z,39.46
2023-04-18T06:34:44.134Z,40.64
2023-04-18T06:35:45.088Z,41.25
2023-04-18T06:36:44.096Z,42.72
2023-04-18T06:37:44.094Z,38.63
2023-04-18T06:38:44.090Z,38.99
2023-04-18T06:39:44.060Z,39.88
2023-04-18T06:40:44.532Z,39.23
2023-04-18T06:41:44.072Z,39.93
2023-04-18T06:42:44.079Z,41.37
2023-04-18T06:43:59.708Z,41.88
2023-04-18T06:44:45.092Z,42.10
2023-04-18T06:45:44.056Z,42.50
2023-04-18T06:46:44.013Z,43.81
2023-04-18T06:47:44.051Z,43.92
2023-04-18T06:48:44.537Z,41.55
2023-04-18T06:49:44.022Z,42.74
2023-04-18T06:50:44.002Z,45.02
2023-04-18T06:51:43.986Z,42.23
2023-04-18T06:52:44.013Z,41.24
2023-04-18T06:53:43.996Z,43.60
2023-04-18T06:54:44.001Z,42.44
2023-04-18T06:55:43.926Z,43.06
2023-04-18T06:56:43.947Z,46.98
2023-04-18T06:57:44.015Z,44.35
2023-04-18T06:58:43.927Z,47.71
2023-04-18T06:59:43.945Z,50.10
2023-04-18T07:00:44.017Z,52.47
2023-04-18T07:01:43.958Z,47.55
2023-04-18T07:02:44.103Z,46.36
2023-04-18T07:03:45.653Z,50.17
2023-04-18T07:04:46.591Z,50.03
2023-04-18T07:05:43.893Z,48.98
2023-04-18T07:06:43.906Z,48.12
2023-04-18T07:07:43.894Z,52.38
2023-04-18T07:08:43.865Z,53.35
2023-04-18T07:09:43.884Z,54.80
2023-04-18T07:10:43.961Z,52.76
2023-04-18T07:11:43.871Z,55.56
2023-04-18T07:12:43.820Z,55.65
2023-04-18T07:13:43.861Z,58.29
2023-04-18T07:14:43.941Z,56.94
2023-04-18T07:15:43.824Z,56.48
2023-04-18T07:16:43.834Z,54.07
2023-04-18T07:17:44.033Z,53.73
2023-04-18T07:18:43.857Z,57.69
2023-04-18T07:19:43.876Z,57.98
2023-04-18T07:20:43.773Z,59.28
2023-04-18T07:21:43.885Z,56.74
2023-04-18T07:22:43.793Z,55.83
2023-04-18T07:23:43.753Z,56.86
2023-04-18T07:24:43.752Z,59.90
2023-04-18T07:25:43.757Z,59.46
2023-04-18T07:26:43.801Z,55.55
2023-04-18T07:27:43.789Z,58.59
2023-04-18T07:28:43.724Z,59.88
2023-04-18T07:29:43.733Z,58.11
2023-04-18T07:30:43.932Z,58.58
2023-04-18T07:31:43.694Z,62.37
2023-04-18T07:32:43.749Z,60.91
2023-04-18T07:33:43.772Z,62.08
2023-04-18T07:34:43.718Z,64.63
2023-04-18T07:35:43.686Z,62.90
2023-04-18T07:36:44.036Z,62.52
2023-04-18T07:37:43.692Z,65.61
2023-04-18T07:38:43.655Z,68.21
2023-04-18T07:39:43.662Z,70.50
2023-04-18T07:40:43.664Z,70.72
2023-04-18T07:41:44.549Z,71.74
2023-04-18T07:42:43.651Z,70.45
2023-04-18T07:43:43.624Z,70.66
2023-04-18T07:44:43.626Z,74.57
2023-04-18T07:45:43.658Z,77.27
2023-04-18T07:46:44.157Z,79.82
2023-04-18T07:47:44.083Z,76.99
2023-04-18T07:48:44.119Z,79.55
2023-04-18T07:49:44.060Z,79.71
2023-04-18T07:50:43.562Z,78.33
2023-04-18T07:51:43.575Z,79.39
2023-04-18T07:52:43.603Z,83.58
2023-04-18T07:53:43.537Z,81.38
2023-04-18T07:54:43.563Z,84.20
2023-04-18T07:55:43.572Z,86.36
2023-04-18T07:56:44.029Z,81.56
2023-04-18T07:57:44.488Z,81.41
2023-04-18T07:58:43.532Z,84.87
2023-04-18T07:59:45.481Z,81.15
2023-04-18T08:00:43.497Z,81.02
2023-04-18T08:01:43.496Z,81.58
2023-04-18T08:02:43.831Z,83.00
2023-04-18T08:03:43.679Z,78.50
2023-04-18T08:04:43.660Z,77.82
2023-04-18T08:05:43.573Z,80.99
2023-04-18T08:06:43.595Z,81.76
2023-04-18T08:07:44.510Z,83.02
2023-04-18T08:08:43.637Z,82.92
2023-04-18T08:09:44.115Z,79.70
2023-04-18T08:10:43.638Z,81.06
2023-04-18T08:11:43.692Z,78.24
2023-04-18T08:12:43.697Z,77.60
2023-04-18T08:13:43.741Z,76.21
2023-04-18T08:14:44.537Z,77.77
2023-04-18T08:15:43.846Z,79.52
2023-04-18T08:16:43.871Z,78.09
2023-04-18T08:17:43.879Z,79.32
2023-04-18T08:18:43.987Z,75.01
2023-04-18T08:19:44.029Z,76.35
2023-04-18T08:20:44.030Z,79.37
2023-04-18T08:21:43.971Z,79.11
2023-04-18T08:22:57.666Z,79.94
2023-04-18T08:23:45.083Z,79.98
2023-04-18T08:25:00.981Z,78.38
2023-04-18T08:25:45.032Z,79.98
2023-04-18T08:26:44.008Z,77.39
2023-04-18T08:27:43.990Z,76.21
2023-04-18T08:28:45.974Z,75.62
2023-04-18T08:29:43.971Z,75.93
2023-04-18T08:30:44.062Z,74.90
2023-04-18T08:31:44.051Z,74.20
2023-04-18T08:32:44.080Z,73.09
2023-04-18T08:33:44.036Z,71.19
2023-04-18T08:34:44.070Z,68.47
2023-04-18T08:35:44.119Z,67.91
2023-04-18T08:36:44.156Z,69.53
2023-04-18T08:37:44.172Z,64.88
2023-04-18T08:38:44.194Z,65.26
2023-04-18T08:39:44.167Z,61.87
2023-04-18T08:40:44.238Z,56.36
2023-04-18T08:41:46.038Z,55.50
2023-04-18T08:42:44.377Z,55.85
2023-04-18T08:43:44.222Z,52.03
2023-04-18T08:44:44.284Z,51.44
2023-04-18T08:45:44.406Z,51.60
2023-04-18T08:46:45.098Z,47.41
2023-04-18T08:47:44.551Z,48.46
2023-04-18T08:48:44.336Z,46.35
2023-04-18T08:49:44.339Z,48.35
2023-04-18T08:50:44.655Z,47.40
2023-04-18T08:51:44.436Z,42.75
2023-04-18T08:52:44.426Z,45.37
2023-04-18T08:53:44.459Z,46.47
2023-04-18T08:54:44.473Z,48.31
2023-04-18T08:55:47.481Z,41.15
2023-04-18T08:56:45.504Z,41.29
2023-04-18T08:57:46.117Z,36.91
2023-04-18T08:58:44.476Z,33.51
2023-04-18T08:59:45.923Z,31.47
2023-04-18T09:00:44.490Z,27.31
2023-04-18T09:01:44.525Z,26.43
2023-04-18T09:02:44.630Z,27.01
2023-04-18T09:03:44.444Z,27.75
2023-04-18T09:04:44.590Z,26.14
2023-04-18T09:05:44.419Z,28.28
2023-04-18T09:06:44.458Z,27.53
2023-04-18T09:07:44.426Z,27.25
2023-04-18T09:08:44.513Z,28.16
2023-04-18T09:09:44.545Z,26.18
2023-04-18T09:10:46.641Z,26.92
2023-04-18T09:11:44.500Z,30.31
2023-04-18T09:12:44.496Z,35.76
2023-04-18T09:13:44.504Z,29.18
2023-04-18T09:14:45.040Z,29.43
2023-04-18T09:15:44.617Z,25.47
2023-04-18T09:16:44.702Z,31.13
2023-04-18T09:17:44.677Z,29.09
2023-04-18T09:18:44.636Z,28.45
2023-04-18T09:19:44.751Z,28.98
2023-04-18T09:20:44.708Z,29.33
2023-04-18T09:21:45.823Z,25.80
2023-04-18T09:22:44.736Z,25.00
2023-04-18T09:23:44.752Z,30.88
2023-04-18T09:24:44.759Z,26.18
2023-04-18T09:25:45.468Z,25.64
2023-04-18T09:26:45.030Z,29.67
2023-04-18T09:27:44.884Z,27.69
2023-04-18T09:28:44.915Z,29.18
2023-04-18T09:29:44.961Z,30.90
2023-04-18T09:30:44.906Z,32.85
2023-04-18T09:31:44.978Z,33.50
2023-04-18T09:32:45.019Z,38.94
2023-04-18T09:33:44.989Z,39.20
2023-04-18T09:34:45.036Z,42.94
2023-04-18T09:35:45.574Z,30.23
2023-04-18T09:36:45.245Z,25.00
2023-04-18T09:37:45.223Z,28.48
2023-04-18T09:38:45.325Z,25.34
2023-04-18T09:39:45.236Z,26.91
2023-04-18T09:40:45.199Z,24.09
2023-04-18T09:41:45.548Z,30.02
2023-04-18T09:42:45.239Z,31.19
2023-04-18T09:43:45.250Z,33.23
2023-04-18T09:44:45.266Z,34.20
2023-04-18T09:45:45.349Z,40.44
2023-04-18T09:46:47.079Z,39.20
2023-04-18T09:47:45.392Z,35.04
2023-04-18T09:48:45.319Z,37.43
2023-04-18T09:49:45.579Z,35.00
2023-04-18T09:50:45.544Z,35.52
2023-04-18T09:51:45.416Z,33.64
2023-04-18T09:52:45.469Z,27.90
2023-04-18T09:53:45.479Z,31.00
2023-04-18T09:54:47.746Z,26.97
2023-04-18T09:55:45.514Z,25.00
2023-04-18T09:56:45.518Z,27.16
2023-04-18T09:57:45.510Z,28.84
2023-04-18T09:58:45.501Z,32.89
2023-04-18T09:59:45.460Z,39.16
2023-04-18T10:00:46.907Z,34.80
2023-04-18T10:01:45.543Z,34.51
2023-04-18T10:02:45.538Z,36.12
2023-04-18T10:03:45.572Z,36.71
2023-04-18T10:04:45.515Z,40.72
2023-04-18T10:05:45.594Z,37.56
2023-04-18T10:06:45.441Z,35.98
2023-04-18T10:07:45.471Z,26.28
2023-04-18T10:08:45.434Z,34.31
2023-04-18T10:09:45.444Z,34.22
2023-04-18T10:10:45.396Z,25.00
2023-04-18T10:11:45.387Z,25.00
2023-04-18T10:12:45.554Z,30.51
2023-04-18T10:13:45.356Z,26.99
2023-04-18T10:14:45.368Z,24.21
2023-04-18T10:15:45.568Z,27.73
2023-04-18T10:16:48.508Z,26.71
2023-04-18T10:17:55.983Z,24.99
2023-04-18T10:18:46.586Z,26.82
2023-04-18T10:19:45.573Z,27.88
2023-04-18T10:20:45.341Z,29.64
2023-04-18T10:21:45.320Z,27.44
2023-04-18T10:22:45.553Z,26.24
2023-04-18T10:23:45.308Z,29.84
2023-04-18T10:24:45.298Z,29.57
2023-04-18T10:25:45.289Z,25.40
2023-04-18T10:26:45.556Z,25.20
2023-04-18T10:27:45.588Z,29.29
2023-04-18T10:28:46.009Z,25.64
2023-04-18T10:29:45.279Z,26.28
2023-04-18T10:30:45.326Z,29.49
2023-04-18T10:31:45.440Z,30.67
2023-04-18T10:32:45.626Z,30.62
2023-04-18T10:33:52.708Z,30.18
2023-04-18T10:34:46.440Z,30.18
2023-04-18T10:35:45.444Z,29.20
2023-04-18T10:36:45.401Z,30.66
2023-04-18T10:37:45.605Z,33.76
2023-04-18T10:38:45.526Z,34.83
2023-04-18T10:39:45.383Z,41.70
2023-04-18T10:40:46.097Z,36.87
2023-04-18T10:41:45.439Z,39.08
2023-04-18T10:42:45.597Z,36.53
2023-04-18T10:43:45.347Z,33.33
2023-04-18T10:44:45.398Z,31.63
2023-04-18T10:45:45.476Z,28.27
2023-04-18T10:46:45.546Z,39.18
2023-04-18T10:47:45.673Z,39.15
2023-04-18T10:48:45.606Z,29.34
2023-04-18T10:49:45.618Z,37.67
2023-04-18T10:50:45.651Z,34.99
2023-04-18T10:51:45.707Z,33.95
2023-04-18T10:52:46.141Z,28.31
2023-04-18T10:53:45.831Z,27.82
2023-04-18T10:54:45.862Z,25.61
2023-04-18T10:55:46.084Z,30.77
2023-04-18T10:56:45.952Z,35.33
2023-04-18T10:57:45.969Z,28.93
2023-04-18T10:58:45.935Z,25.00
2023-04-18T10:59:46.104Z,33.17
2023-04-18T11:00:46.072Z,28.24
2023-04-18T11:01:46.050Z,26.77
2023-04-18T11:02:46.206Z,26.14
2023-04-18T11:03:46.224Z,32.00
2023-04-18T11:04:46.192Z,43.28
2023-04-18T11:05:46.636Z,33.85
2023-04-18T11:06:46.228Z,34.37
2023-04-18T11:07:46.253Z,29.35
2023-04-18T11:08:46.269Z,25.00
2023-04-18T11:09:46.334Z,25.06
2023-04-18T11:10:46.378Z,27.91
2023-04-18T11:11:46.379Z,25.05
2023-04-18T11:12:46.389Z,33.78
2023-04-18T11:13:46.396Z,43.33
2023-04-18T11:14:46.465Z,39.15
2023-04-18T11:15:46.512Z,42.34
2023-04-18T11:16:46.558Z,46.35
2023-04-18T11:17:46.575Z,47.43
2023-04-18T11:18:46.567Z,36.45
2023-04-18T11:19:47.156Z,39.47
2023-04-18T11:20:46.622Z,44.93
2023-04-18T11:21:46.663Z,46.48
2023-04-18T11:22:46.702Z,40.14
2023-04-18T11:23:46.751Z,48.06
2023-04-18T11:24:47.664Z,43.80
2023-04-18T11:25:46.776Z,28.95
2023-04-18T11:26:46.856Z,28.05
2023-04-18T11:27:46.891Z,27.47
2023-04-18T11:28:46.887Z,27.21
2023-04-18T11:29:46.912Z,26.36
2023-04-18T11:30:47.613Z,34.46
2023-04-18T11:31:47.061Z,38.42
2023-04-18T11:32:47.003Z,47.90
2023-04-18T11:33:47.084Z,53.29
2023-04-18T11:34:47.064Z,50.35
2023-04-18T11:35:47.109Z,61.13
2023-04-18T11:36:47.213Z,67.07
2023-04-18T11:37:47.596Z,79.61
2023-04-18T11:38:47.196Z,81.61
2023-04-18T11:39:47.299Z,93.96
2023-04-18T11:40:47.345Z,103.11
2023-04-18T11:41:47.309Z,91.88
2023-04-18T11:42:47.383Z,99.07
2023-04-18T11:43:47.440Z,105.85
2023-04-18T11:44:47.458Z,108.95
2023-04-18T11:45:47.535Z,104.36
2023-04-18T11:46:47.577Z,110.18
2023-04-18T11:47:47.661Z,125.96
2023-04-18T11:48:47.640Z,112.08
2023-04-18T11:49:47.671Z,107.09
2023-04-18T11:50:47.746Z,110.53
2023-04-18T11:51:47.750Z,105.59
2023-04-18T11:52:47.801Z,105.81
2023-04-18T11:53:47.770Z,99.10
2023-04-18T11:54:47.812Z,94.80
2023-04-18T11:55:47.879Z,103.61
2023-04-18T11:56:47.889Z,106.92
2023-04-18T11:57:47.924Z,102.41
2023-04-18T11:58:48.004Z,97.56
2023-04-18T11:59:48.010Z,92.63
2023-04-18T12:00:48.018Z,94.26
2023-04-18T12:01:48.336Z,99.17
2023-04-18T12:02:48.265Z,98.39
2023-04-18T12:03:48.317Z,100.34
2023-04-18T12:04:48.367Z,102.96
2023-04-18T12:05:48.580Z,98.50
2023-04-18T12:06:48.276Z,104.75
2023-04-18T12:07:48.275Z,113.56
2023-04-18T12:08:48.360Z,120.06
2023-04-18T12:09:48.364Z,133.14
2023-04-18T12:10:48.421Z,127.64
2023-04-18T12:11:48.401Z,123.63
2023-04-18T12:12:48.412Z,116.66
2023-04-18T12:13:48.469Z,127.29
2023-04-18T12:14:48.500Z,143.52
2023-04-18T12:15:48.567Z,141.55
2023-04-18T12:16:48.510Z,142.99
2023-04-18T12:17:48.645Z,143.33
2023-04-18T12:18:48.625Z,143.35
2023-04-18T12:19:49.933Z,145.41
2023-04-18T12:20:48.714Z,149.11
2023-04-18T12:21:48.746Z,149.27
2023-04-18T12:22:48.772Z,144.14
2023-04-18T12:23:48.814Z,145.85
2023-04-18T12:24:48.816Z,147.59
2023-04-18T12:25:48.903Z,149.49
2023-04-18T12:26:48.962Z,143.88
2023-04-18T12:27:48.942Z,144.84
2023-04-18T12:28:49.064Z,150.98
2023-04-18T12:29:49.064Z,147.97
2023-04-18T12:30:49.109Z,146.36
2023-04-18T12:31:49.163Z,146.94
2023-04-18T12:32:49.192Z,140.34
2023-04-18T12:33:49.200Z,145.34
2023-04-18T12:34:49.266Z,148.42
2023-04-18T12:35:49.673Z,145.18
2023-04-18T12:36:49.356Z,142.17
2023-04-18T12:37:49.363Z,140.09
2023-04-18T12:38:49.410Z,135.10
2023-04-18T12:39:49.411Z,134.24
2023-04-18T12:40:49.620Z,133.97
2023-04-18T12:41:49.916Z,128.47
2023-04-18T12:42:49.626Z,131.71
2023-04-18T12:43:49.597Z,134.88
2023-04-18T12:44:49.643Z,136.43
2023-04-18T12:45:49.617Z,135.68
2023-04-18T12:46:49.754Z,137.26
2023-04-18T12:47:49.795Z,138.21
2023-04-18T12:48:49.776Z,135.65